KJAS/JAS METAR and TAF weather

Enter ICAO airport designator
Station Type Date Time Source
KJAS METAR 2021/05/15 23:15 UTC NOAA

KJAS 152315Z AUTO 17005KT 10SM FEW060 27/16 A3005 RMK AO2


Station Type Date Time Source
KJAS Decoded METAR 2021/05/15 23:15 UTC NOAA

Jasper, Jasper County-Bell Field Airport, TX, United States (KJAS) 30-53-08N 094-02-05W
May 15, 2021 - 07:15 PM EDT / 2021.05.15 2315 UTC
Wind: from the S (170 degrees) at 6 MPH (5 KT):0
Visibility: 10 mile(s):0
Sky conditions: mostly clear
Temperature: 80 F (27 C)
Dew Point: 60 F (16 C)
Relative Humidity: 50%
Pressure (altimeter): 30.05 in. Hg (1017 hPa)
ob: KJAS 152315Z AUTO 17005KT 10SM FEW060 27/16 A3005 RMK AO2
cycle: 23

Station Type Date Time Source
KJAS TAF UTC NOAA

Error!

Example: see airport list